KAPA

Centennial Airport

Denver, Colorado, USA
METAR KAPA 191953Z 07012G22KT 030V110 10SM VCTS FEW025 BKN045 BKN090 22/11 A3002 RMK AO2 PK WND 12030/1913 WSHFT 1915 LTG DSNT N-E TSB03E42 SLP103 OCNL LTGICCG DSNT N-E T02220111
Observed Flight Rules
Jun-19 @ 19:53 UTC (21 minutes ago) Visual Flight Rules
Wind Visibility Clouds Conditions
70° at 12 knots
 Gusting to 22 knots
10 miles
  • Few at 2,500' AGL
  • Broken at 4,500' AGL
  • Broken at 9,000' AGL
  • Area Thunderstorm
Temperatures Readings
Current 22°C / 72°F
Dewpoint 11°C / 52°F
Humidity 50%
Altimeter 30.02" Hg
Pressure 1010.3 hPa
Elevation 1775
METAR KAPA 191953Z 07012G22KT 030V110 10SM VCTS FEW025 BKN045 BKN090 22/11 A3002 RMK AO2 PK WND 12030/1913 WSHFT 1915 LTG DSNT N-E TSB03E42 SLP103 OCNL LTGICCG DSNT N-E T02220111
Observed Flight Rules
Jun-19 @ 19:53 UTC
(21 minutes ago)
VFR
Wind Visibility
70° at 12 knots
 Gusting to 22 knots
10 miles
Clouds
  • Few at 2,500' AGL
  • Broken at 4,500' AGL
  • Broken at 9,000' AGL
Conditions
  • Area Thunderstorm
Temperature Dewpoint
22°C / 72°F 11°C / 52°F
Humidity Altimeter Pressure
50% 30.02" Hg 1010.3 hPa